Time;durP1;ratioP1;P1;durP2;ratioP2;P2;SDS_P1;SDS_P2;PMS_P1;PMS_P2;Temp;Humidity;BMP_temperature;BMP_pressure;BME280_temperature;BME280_humidity;BME280_pressure;Samples;Min_cycle;Max_cycle;Signal;HPM_P1;HPM_P2
2022/03/27 00:00:05;;;;;;;21.68;12.68;;;26.10;99.90;;;;;;1913679;73;21216;-84
2022/03/27 00:02:36;;;;;;;20.20;13.03;;;26.10;99.90;;;;;;1921882;73;21677;-84
2022/03/27 00:05:09;;;;;;;23.07;13.25;;;26.00;99.90;;;;;;1926006;73;21169;-84
2022/03/27 00:07:40;;;;;;;19.07;12.23;;;26.00;99.90;;;;;;1922838;74;21114;-82
2022/03/27 00:10:11;;;;;;;23.22;12.85;;;26.00;99.90;;;;;;1914898;74;21166;-84
2022/03/27 00:12:42;;;;;;;17.95;12.68;;;26.10;99.90;;;;;;1908944;73;21163;-84
2022/03/27 00:15:15;;;;;;;21.42;12.95;;;26.10;99.80;;;;;;1878367;75;21112;-85
2022/03/27 00:17:46;;;;;;;19.27;12.50;;;26.10;99.40;;;;;;1931085;73;21110;-84
2022/03/27 00:20:18;;;;;;;19.20;11.95;;;26.10;99.40;;;;;;1921986;73;21110;-84
2022/03/27 00:22:49;;;;;;;19.07;11.57;;;26.20;99.50;;;;;;1929000;73;21188;-84
2022/03/27 00:25:20;;;;;;;18.00;11.30;;;26.20;99.30;;;;;;1916132;73;21170;-84
2022/03/27 00:27:51;;;;;;;23.85;11.10;;;26.20;99.30;;;;;;1936863;73;21118;-85
2022/03/27 00:30:22;;;;;;;18.55;10.93;;;26.20;99.00;;;;;;1908588;74;21087;-84
2022/03/27 00:32:53;;;;;;;24.65;10.72;;;26.30;99.30;;;;;;1920924;73;21184;-84
2022/03/27 00:35:24;;;;;;;20.50;10.38;;;26.30;98.50;;;;;;1920712;73;21122;-85
2022/03/27 00:37:55;;;;;;;20.00;10.43;;;26.40;98.70;;;;;;1873494;75;21199;-84
2022/03/27 00:40:27;;;;;;;16.70;10.80;;;26.40;98.50;;;;;;1909206;73;21154;-84
2022/03/27 00:42:58;;;;;;;18.23;10.80;;;26.50;98.80;;;;;;1924269;73;21044;-84
2022/03/27 00:45:29;;;;;;;17.55;10.95;;;26.50;98.60;;;;;;1916204;74;21194;-85
2022/03/27 00:48:02;;;;;;;19.57;10.05;;;26.60;98.50;;;;;;1927200;73;21151;-85
2022/03/27 00:50:35;;;;;;;19.80;11.08;;;26.60;98.50;;;;;;1922597;73;21159;-84
2022/03/27 00:53:14;;;;;;;22.93;10.18;;;26.70;98.60;;;;;;1928946;73;21099;-84
2022/03/27 00:55:44;;;;;;;16.93;10.23;;;26.80;98.00;;;;;;1908726;73;21071;-83
2022/03/27 00:58:16;;;;;;;18.75;10.43;;;26.80;98.10;;;;;;1922721;73;21150;-84
2022/03/27 01:00:50;;;;;;;21.77;9.10;;;26.80;97.90;;;;;;1921673;73;21558;-85
2022/03/27 01:03:26;;;;;;;13.93;8.80;;;26.90;97.40;;;;;;1920922;73;21232;-84
2022/03/27 01:06:00;;;;;;;16.65;8.98;;;27.00;97.70;;;;;;1921855;73;21684;-84
2022/03/27 01:11:06;;;;;;;11.63;8.55;;;27.00;96.90;;;;;;1920129;74;21083;-84
2022/03/27 01:13:40;;;;;;;14.63;9.38;;;27.00;96.70;;;;;;1909271;73;21141;-84
2022/03/27 01:16:13;;;;;;;16.57;10.08;;;27.00;97.00;;;;;;1863403;75;21132;-83
2022/03/27 01:18:45;;;;;;;14.83;9.63;;;27.10;96.60;;;;;;1920495;74;21829;-83
2022/03/27 01:21:18;;;;;;;22.50;10.28;;;27.10;96.70;;;;;;1919744;73;21092;-84
2022/03/27 01:23:48;;;;;;;16.80;10.18;;;27.20;97.00;;;;;;1908618;73;21068;-84
2022/03/27 01:26:20;;;;;;;15.20;9.53;;;27.20;96.90;;;;;;1924201;73;21173;-84
2022/03/27 01:28:52;;;;;;;18.75;10.15;;;27.30;96.70;;;;;;1915216;74;21179;-83
2022/03/27 01:31:24;;;;;;;15.43;10.55;;;27.30;96.50;;;;;;1929016;73;21150;-84
2022/03/27 01:33:56;;;;;;;17.90;10.48;;;27.40;96.60;;;;;;1924194;73;21102;-83
2022/03/27 01:36:31;;;;;;;16.10;9.70;;;27.50;96.30;;;;;;1927139;73;21459;-84
2022/03/27 01:39:02;;;;;;;15.05;9.70;;;27.50;96.20;;;;;;1920335;73;22131;-84
2022/03/27 01:41:34;;;;;;;14.85;9.38;;;27.50;96.30;;;;;;1912784;74;21551;-83
2022/03/27 01:44:07;;;;;;;13.32;9.80;;;27.60;96.20;;;;;;1928677;73;21134;-83
2022/03/27 01:46:40;;;;;;;16.15;9.23;;;27.70;96.00;;;;;;1907291;73;21246;-83
2022/03/27 01:49:13;;;;;;;16.35;9.73;;;27.70;95.90;;;;;;1904935;73;21237;-84
2022/03/27 01:51:44;;;;;;;18.05;9.70;;;27.80;95.70;;;;;;1917110;73;21186;-83
2022/03/27 01:54:16;;;;;;;20.30;9.50;;;27.90;95.70;;;;;;1931331;73;21081;-83
2022/03/27 01:56:47;;;;;;;15.88;9.90;;;27.90;95.10;;;;;;1901611;74;21796;-83
2022/03/27 01:59:21;;;;;;;15.45;9.68;;;28.00;95.40;;;;;;1909041;73;21151;-85
2022/03/27 02:01:51;;;;;;;14.65;9.73;;;28.10;95.20;;;;;;1916810;73;21176;-84
2022/03/27 02:04:22;;;;;;;14.40;9.35;;;28.20;95.20;;;;;;1912338;73;21043;-83
2022/03/27 02:06:55;;;;;;;19.50;9.60;;;28.20;95.00;;;;;;1921503;73;21235;-83
2022/03/27 02:09:29;;;;;;;16.27;10.63;;;28.40;95.00;;;;;;1921935;73;21857;-84
2022/03/27 02:12:00;;;;;;;15.50;10.08;;;28.50;94.80;;;;;;1930191;73;21609;-84
2022/03/27 02:14:31;;;;;;;16.30;9.83;;;28.70;94.70;;;;;;1922690;73;21158;-84
2022/03/27 02:17:02;;;;;;;18.27;10.23;;;28.70;94.40;;;;;;1922102;73;21071;-83
2022/03/27 02:19:33;;;;;;;13.30;9.78;;;28.80;94.60;;;;;;1922233;73;21107;-84
2022/03/27 02:22:04;;;;;;;14.47;9.23;;;28.90;94.60;;;;;;1918716;73;21138;-84
2022/03/27 02:24:35;;;;;;;15.98;9.48;;;29.00;94.30;;;;;;1917147;73;21674;-84
2022/03/27 02:27:06;;;;;;;14.20;9.35;;;29.10;93.50;;;;;;1907992;73;21605;-84
2022/03/27 02:29:37;;;;;;;15.55;9.25;;;29.20;93.10;;;;;;1928619;73;21132;-84
2022/03/27 02:32:08;;;;;;;15.10;8.68;;;29.30;93.40;;;;;;1936495;73;21151;-83
2022/03/27 02:34:39;;;;;;;18.20;9.33;;;29.40;93.20;;;;;;1851269;76;21189;-83
2022/03/27 02:37:10;;;;;;;13.98;8.93;;;29.60;92.90;;;;;;1851213;76;21178;-84
2022/03/27 02:39:44;;;;;;;14.25;9.80;;;29.70;92.90;;;;;;1912246;74;21337;-84
2022/03/27 02:42:16;;;;;;;12.82;9.33;;;29.80;92.60;;;;;;1886392;74;21241;-83
2022/03/27 02:44:46;;;;;;;16.45;9.00;;;29.90;92.30;;;;;;1890664;74;21155;-84
2022/03/27 02:47:17;;;;;;;17.30;8.43;;;30.00;91.80;;;;;;1874896;74;21052;-84
2022/03/27 02:49:48;;;;;;;14.75;9.28;;;30.20;91.20;;;;;;1895117;74;21193;-84
2022/03/27 02:52:21;;;;;;;12.45;9.05;;;30.30;90.80;;;;;;1894520;74;21182;-84
2022/03/27 02:54:51;;;;;;;12.33;8.45;;;30.40;90.70;;;;;;1874424;74;21187;-84
2022/03/27 02:57:23;;;;;;;14.07;9.45;;;30.50;90.30;;;;;;1896274;74;21225;-85
2022/03/27 02:59:55;;;;;;;14.05;8.63;;;30.60;89.50;;;;;;1898738;74;21237;-84
2022/03/27 03:02:26;;;;;;;11.00;8.98;;;30.70;88.70;;;;;;1898979;74;21174;-85
2022/03/27 03:04:57;;;;;;;14.40;8.98;;;30.80;88.10;;;;;;1891523;74;21733;-84
2022/03/27 03:07:28;;;;;;;12.05;8.33;;;30.90;87.20;;;;;;1889743;74;21100;-83
2022/03/27 03:09:59;;;;;;;10.93;9.00;;;31.10;86.60;;;;;;1888136;74;21557;-84
2022/03/27 03:12:30;;;;;;;11.83;8.45;;;31.20;87.60;;;;;;1889859;75;21161;-84
2022/03/27 03:15:01;;;;;;;13.15;8.95;;;31.20;86.70;;;;;;1885384;75;21714;-84
2022/03/27 03:17:32;;;;;;;14.00;9.20;;;31.40;86.80;;;;;;1890916;74;21629;-84
2022/03/27 03:20:03;;;;;;;13.83;8.33;;;31.60;85.20;;;;;;1888631;75;21157;-86
2022/03/27 03:22:35;;;;;;;12.33;8.18;;;31.60;84.90;;;;;;1879012;75;21154;-84
2022/03/27 03:25:07;;;;;;;10.35;8.18;;;31.70;85.40;;;;;;1885874;74;21171;-84
2022/03/27 03:27:38;;;;;;;11.15;8.60;;;31.80;85.60;;;;;;1887145;75;21116;-84
2022/03/27 03:30:10;;;;;;;13.50;8.35;;;31.90;84.60;;;;;;1891014;74;21185;-85
2022/03/27 03:32:40;;;;;;;11.88;8.98;;;;;;;;;;1892780;74;21084;-84
2022/03/27 03:35:12;;;;;;;13.45;8.65;;;32.10;82.00;;;;;;1889991;74;21174;-83
2022/03/27 03:37:44;;;;;;;13.50;8.78;;;32.20;83.00;;;;;;1889514;74;21209;-84
2022/03/27 03:40:15;;;;;;;16.07;9.43;;;32.30;83.20;;;;;;1893698;73;21230;-85
2022/03/27 03:42:46;;;;;;;12.30;9.28;;;32.40;82.60;;;;;;1891063;74;21690;-84
2022/03/27 03:45:18;;;;;;;16.27;9.85;;;32.50;82.70;;;;;;1889956;74;21162;-82
2022/03/27 03:47:49;;;;;;;13.38;8.73;;;32.60;82.50;;;;;;1891890;74;21168;-86
2022/03/27 03:50:20;;;;;;;14.30;9.53;;;32.70;81.10;;;;;;1887655;74;21177;-83
2022/03/27 03:52:51;;;;;;;14.78;9.90;;;32.80;81.30;;;;;;1893134;74;21794;-84
2022/03/27 03:55:22;;;;;;;10.65;9.38;;;33.00;80.90;;;;;;1896222;74;21147;-80
2022/03/27 03:57:59;;;;;;;16.12;9.10;;;33.10;80.90;;;;;;1896403;74;21142;-84
2022/03/27 04:00:30;;;;;;;12.70;8.90;;;33.20;79.80;;;;;;1889912;74;21142;-82
2022/03/27 04:03:02;;;;;;;14.98;9.53;;;33.30;79.30;;;;;;1889415;74;21167;-82
2022/03/27 04:05:34;;;;;;;18.60;9.13;;;33.30;79.80;;;;;;1894537;74;21528;-83
2022/03/27 04:08:05;;;;;;;19.65;9.98;;;33.40;78.80;;;;;;1899392;74;22086;-84
2022/03/27 04:10:36;;;;;;;14.10;10.38;;;33.40;78.10;;;;;;1900199;74;21168;-82
2022/03/27 04:13:06;;;;;;;15.90;10.20;;;33.40;78.60;;;;;;1896053;74;21111;-83
2022/03/27 04:15:38;;;;;;;15.48;10.85;;;33.50;79.00;;;;;;1885916;74;21123;-84
2022/03/27 04:18:11;;;;;;;17.02;10.93;;;33.50;78.40;;;;;;1887218;74;21116;-84
2022/03/27 04:20:43;;;;;;;14.35;10.13;;;33.60;77.70;;;;;;1902502;74;21143;-84
2022/03/27 04:23:14;;;;;;;15.05;9.95;;;33.70;77.90;;;;;;1903983;74;21736;-84
2022/03/27 04:25:45;;;;;;;16.37;10.20;;;33.80;77.10;;;;;;1884625;74;21159;-83
2022/03/27 04:28:16;;;;;;;14.07;10.43;;;33.90;76.80;;;;;;1891901;74;21376;-84
2022/03/27 04:30:47;;;;;;;10.53;8.68;;;34.00;75.50;;;;;;1888594;74;21575;-84
2022/03/27 04:33:18;;;;;;;14.40;9.43;;;34.10;73.10;;;;;;1888290;74;21811;-84
2022/03/27 04:35:49;;;;;;;15.65;10.75;;;34.20;74.10;;;;;;1891221;74;21171;-84
2022/03/27 04:38:19;;;;;;;15.38;9.55;;;34.20;74.40;;;;;;1887591;74;21142;-83
2022/03/27 04:40:50;;;;;;;10.72;9.13;;;34.30;73.50;;;;;;1898140;74;21154;-84
2022/03/27 04:43:25;;;;;;;12.37;10.35;;;34.30;75.70;;;;;;1916334;73;21183;-83
2022/03/27 04:45:54;;;;;;;12.30;10.18;;;34.30;75.90;;;;;;1868464;75;21171;-84
2022/03/27 04:48:25;;;;;;;16.75;11.08;;;34.40;74.10;;;;;;1930556;73;21110;-82
2022/03/27 04:50:57;;;;;;;13.65;11.08;;;34.40;72.90;;;;;;1929069;73;21122;-84
2022/03/27 04:53:28;;;;;;;13.75;9.90;;;34.40;73.30;;;;;;1923280;73;21129;-85
2022/03/27 04:55:59;;;;;;;17.07;11.08;;;34.40;73.00;;;;;;1905336;73;21220;-85
2022/03/27 04:58:29;;;;;;;12.53;10.50;;;34.50;73.20;;;;;;1924869;73;21141;-84
2022/03/27 05:01:01;;;;;;;12.98;8.50;;;34.50;72.30;;;;;;1920625;73;21260;-85
2022/03/27 05:03:33;;;;;;;9.73;8.28;;;34.50;71.30;;;;;;1918375;73;21843;-85
2022/03/27 05:06:04;;;;;;;10.98;8.05;;;34.30;70.00;;;;;;1918958;73;21662;-84
2022/03/27 05:08:36;;;;;;;11.28;8.58;;;34.10;71.90;;;;;;1921150;73;21228;-84
2022/03/27 05:11:06;;;;;;;11.35;8.28;;;34.10;72.50;;;;;;1919791;73;21212;-85
2022/03/27 05:13:37;;;;;;;11.15;8.48;;;34.20;71.50;;;;;;1923197;73;21199;-85
2022/03/27 05:16:08;;;;;;;10.38;8.35;;;34.30;71.10;;;;;;1923504;73;21087;-84
2022/03/27 05:18:39;;;;;;;9.48;8.48;;;34.30;70.80;;;;;;1923731;74;21212;-84
2022/03/27 05:21:10;;;;;;;11.53;8.08;;;34.40;71.90;;;;;;1921779;73;21107;-84
2022/03/27 05:23:41;;;;;;;9.15;8.00;;;34.50;70.50;;;;;;1915939;74;21128;-82
2022/03/27 05:26:12;;;;;;;11.60;8.85;;;34.70;72.70;;;;;;1921988;74;21232;-84
2022/03/27 05:28:43;;;;;;;13.43;8.83;;;34.80;71.10;;;;;;1914792;73;21652;-85
2022/03/27 05:31:17;;;;;;;13.62;8.40;;;34.90;70.10;;;;;;1922179;74;22517;-84
2022/03/27 05:33:48;;;;;;;10.53;8.18;;;35.00;70.30;;;;;;1925856;74;21099;-84
2022/03/27 05:36:20;;;;;;;10.75;7.83;;;35.00;69.70;;;;;;1918923;73;21237;-84
2022/03/27 05:38:51;;;;;;;12.03;8.05;;;35.10;69.30;;;;;;1850147;76;21178;-83
2022/03/27 05:41:22;;;;;;;12.13;8.23;;;35.10;68.90;;;;;;1922914;73;21190;-83
2022/03/27 05:43:53;;;;;;;11.88;9.13;;;35.10;68.80;;;;;;1924672;73;21111;-84
2022/03/27 05:46:24;;;;;;;12.30;8.20;;;35.10;70.30;;;;;;1922809;73;21184;-82
2022/03/27 05:48:55;;;;;;;10.80;8.18;;;35.20;69.10;;;;;;1919130;73;21134;-83
2022/03/27 05:51:26;;;;;;;12.68;9.20;;;35.20;67.50;;;;;;1918824;74;21787;-83
2022/03/27 05:53:57;;;;;;;10.10;7.78;;;35.30;68.60;;;;;;1926902;73;21091;-84
2022/03/27 05:56:28;;;;;;;12.60;8.75;;;35.30;67.70;;;;;;1919205;74;21130;-84
2022/03/27 05:58:59;;;;;;;11.57;7.87;;;35.30;67.40;;;;;;1920132;73;21108;-84
2022/03/27 06:01:30;;;;;;;13.68;8.90;;;35.20;67.10;;;;;;1925301;73;21122;-84
2022/03/27 06:04:01;;;;;;;10.82;7.70;;;35.00;68.30;;;;;;1918567;73;21256;-83
2022/03/27 06:06:32;;;;;;;15.20;10.08;;;34.80;68.50;;;;;;1912427;73;21126;-84
2022/03/27 06:09:03;;;;;;;9.38;7.62;;;34.50;69.90;;;;;;1919481;73;21231;-84
2022/03/27 06:11:34;;;;;;;13.53;8.85;;;34.40;70.70;;;;;;1922061;74;21130;-86
2022/03/27 06:14:05;;;;;;;15.05;8.85;;;34.20;70.40;;;;;;1918192;74;21096;-85
2022/03/27 06:16:36;;;;;;;10.75;8.85;;;34.20;71.40;;;;;;1931942;73;21474;-84
2022/03/27 06:19:07;;;;;;;10.98;8.58;;;34.10;71.40;;;;;;1921267;74;21084;-84
2022/03/27 06:21:38;;;;;;;12.58;9.33;;;34.10;71.50;;;;;;1907346;74;21155;-83
2022/03/27 06:24:09;;;;;;;11.93;8.53;;;34.10;71.50;;;;;;1921254;73;21138;-85
2022/03/27 06:26:40;;;;;;;11.10;8.18;;;34.10;70.40;;;;;;1921372;74;21617;-85
2022/03/27 06:29:14;;;;;;;12.98;8.85;;;34.30;69.50;;;;;;1915952;74;21204;-85
2022/03/27 06:31:44;;;;;;;12.53;8.60;;;34.40;69.20;;;;;;1916151;73;21103;-83
2022/03/27 06:34:15;;;;;;;12.70;8.10;;;34.60;69.60;;;;;;1920199;74;21139;-84
2022/03/27 06:36:46;;;;;;;9.15;6.90;;;34.80;69.00;;;;;;1909498;74;21131;-83
2022/03/27 06:39:20;;;;;;;10.08;7.22;;;35.00;66.00;;;;;;1917530;73;21252;-84
2022/03/27 06:41:51;;;;;;;9.80;7.10;;;35.10;65.20;;;;;;1910555;74;21590;-83
2022/03/27 06:44:22;;;;;;;12.10;8.33;;;35.20;65.50;;;;;;1922556;73;21087;-84
2022/03/27 06:46:53;;;;;;;5.40;4.80;;;35.30;64.60;;;;;;1921255;73;21100;-84
2022/03/27 06:49:25;;;;;;;5.58;4.85;;;35.40;59.30;;;;;;1921385;73;21107;-85
2022/03/27 06:51:56;;;;;;;5.83;5.12;;;35.40;58.20;;;;;;1921736;74;21147;-83
2022/03/27 06:54:29;;;;;;;7.95;5.60;;;35.40;58.70;;;;;;1922161;74;21201;-83
2022/03/27 06:56:59;;;;;;;8.13;6.08;;;35.40;60.40;;;;;;1920735;74;21130;-84
2022/03/27 07:04:36;;;;;;;8.43;6.97;;;35.30;64.90;;;;;;1922827;73;21218;-84
2022/03/27 07:07:06;;;;;;;9.03;6.65;;;35.30;65.10;;;;;;1925747;73;21142;-84
2022/03/27 07:09:37;;;;;;;9.98;7.25;;;35.30;62.90;;;;;;1923852;73;21282;-84
2022/03/27 07:12:09;;;;;;;7.42;6.20;;;35.20;62.80;;;;;;1930015;74;21199;-83
2022/03/27 07:14:43;;;;;;;7.12;6.25;;;35.10;62.40;;;;;;1920127;74;21393;-82
2022/03/27 07:17:17;;;;;;;10.38;6.90;;;35.10;64.30;;;;;;1916827;74;21115;-84
2022/03/27 07:19:49;;;;;;;9.20;6.17;;;35.10;63.40;;;;;;1922055;74;21666;-83
2022/03/27 07:22:23;;;;;;;8.23;6.08;;;35.10;61.70;;;;;;1888237;75;21654;-83
2022/03/27 07:24:55;;;;;;;9.58;6.37;;;35.20;62.80;;;;;;1915250;73;21624;-84
2022/03/27 07:27:26;;;;;;;9.48;6.83;;;35.20;62.20;;;;;;1920308;73;21649;-83
2022/03/27 07:29:56;;;;;;;6.85;6.00;;;35.30;62.20;;;;;;1922288;73;21188;-82
2022/03/27 07:32:27;;;;;;;11.38;6.30;;;35.30;60.10;;;;;;1921498;74;21114;-83
2022/03/27 07:34:58;;;;;;;9.20;6.35;;;35.30;60.00;;;;;;1923133;74;21432;-82
2022/03/27 07:37:32;;;;;;;9.50;6.55;;;35.20;61.60;;;;;;1921172;74;21159;-84
2022/03/27 07:40:03;;;;;;;8.55;7.30;;;35.20;62.70;;;;;;1921328;74;21219;-83
2022/03/27 07:42:34;;;;;;;8.78;6.75;;;35.00;63.50;;;;;;1921533;74;21146;-83
2022/03/27 07:45:08;;;;;;;9.10;6.90;;;35.10;63.90;;;;;;1914174;73;21630;-84
2022/03/27 07:47:39;;;;;;;7.85;6.05;;;35.10;62.30;;;;;;1924947;71;21158;-85
2022/03/27 07:50:11;;;;;;;9.13;5.85;;;35.20;60.50;;;;;;1921235;74;21545;-82
2022/03/27 07:52:43;;;;;;;6.42;5.37;;;35.20;60.40;;;;;;1911950;74;21087;-83
2022/03/27 07:55:16;;;;;;;9.55;6.42;;;35.30;60.60;;;;;;1921441;74;21240;-84
2022/03/27 07:57:47;;;;;;;9.80;6.95;;;35.30;60.40;;;;;;1922414;73;21227;-84
2022/03/27 08:00:18;;;;;;;8.65;6.75;;;35.30;59.90;;;;;;1919091;73;21224;-84
2022/03/27 08:02:51;;;;;;;8.58;6.83;;;35.30;60.00;;;;;;1915456;73;21139;-83
2022/03/27 08:05:24;;;;;;;9.35;7.87;;;35.20;61.20;;;;;;1924713;73;21174;-85
2022/03/27 08:07:55;;;;;;;9.85;6.72;;;35.20;62.50;;;;;;1930806;73;21251;-84
2022/03/27 08:10:26;;;;;;;8.48;6.47;;;35.20;61.30;;;;;;1922655;74;21673;-82
2022/03/27 08:12:59;;;;;;;9.53;7.30;;;35.20;61.60;;;;;;1922835;74;21281;-82
2022/03/27 08:15:30;;;;;;;7.97;5.85;;;35.20;63.60;;;;;;1921125;74;21180;-84
2022/03/27 08:18:01;;;;;;;8.35;6.33;;;35.10;61.20;;;;;;1925270;74;21142;-83
2022/03/27 08:20:32;;;;;;;8.95;6.55;;;35.20;61.10;;;;;;1922948;74;21170;-83
2022/03/27 08:23:07;;;;;;;10.98;6.50;;;35.20;61.80;;;;;;1918045;73;21579;-83
2022/03/27 08:28:14;;;;;;;6.78;5.28;;;35.30;61.70;;;;;;1914671;74;21104;-82
2022/03/27 08:30:44;;;;;;;10.55;6.05;;;35.30;60.60;;;;;;1920528;74;21142;-82
2022/03/27 08:33:16;;;;;;;6.40;5.72;;;35.30;59.50;;;;;;1921752;73;21223;-83
2022/03/27 08:35:47;;;;;;;9.60;7.22;;;35.30;59.50;;;;;;1929006;73;21071;-82
2022/03/27 08:38:20;;;;;;;6.87;5.95;;;35.30;59.40;;;;;;1927666;73;21067;-82
2022/03/27 08:40:55;;;;;;;9.38;6.70;;;35.30;59.10;;;;;;1918931;74;21139;-81
2022/03/27 08:43:27;;;;;;;10.05;7.20;;;35.30;59.90;;;;;;1923990;73;21138;-83
2022/03/27 08:45:59;;;;;;;11.97;7.35;;;35.30;60.60;;;;;;1920746;74;21075;-84
2022/03/27 08:48:33;;;;;;;10.28;7.85;;;35.30;62.00;;;;;;1885744;74;21649;-83
2022/03/27 08:51:06;;;;;;;11.00;7.70;;;35.30;61.30;;;;;;1896147;75;21229;-83
2022/03/27 08:53:40;;;;;;;13.00;7.47;;;35.30;61.00;;;;;;1894115;75;21614;-83
2022/03/27 08:56:12;;;;;;;10.08;7.72;;;35.30;61.10;;;;;;1892875;74;21422;-83
2022/03/27 08:58:43;;;;;;;7.65;6.85;;;35.20;61.10;;;;;;1895444;74;21543;-83
2022/03/27 09:01:15;;;;;;;11.65;7.78;;;35.30;61.30;;;;;;1895878;75;21162;-82
2022/03/27 09:03:47;;;;;;;9.95;7.50;;;35.20;61.90;;;;;;1891604;75;21167;-83
2022/03/27 09:06:21;;;;;;;8.50;7.53;;;35.20;61.10;;;;;;1884250;75;21123;-82
2022/03/27 09:08:51;;;;;;;10.03;7.37;;;35.20;61.60;;;;;;1904199;74;21099;-84
2022/03/27 09:11:25;;;;;;;10.35;7.92;;;35.20;61.60;;;;;;1910545;74;21149;-82
2022/03/27 09:13:56;;;;;;;9.93;7.97;;;35.10;62.30;;;;;;1896840;74;21177;-83
2022/03/27 09:16:26;;;;;;;10.80;7.90;;;35.00;62.00;;;;;;1904000;74;21098;-84
2022/03/27 09:19:01;;;;;;;9.53;7.37;;;35.00;62.20;;;;;;1911279;74;21159;-83
2022/03/27 09:21:31;;;;;;;10.90;8.25;;;34.90;62.70;;;;;;1905372;74;21067;-84
2022/03/27 09:24:03;;;;;;;9.10;8.20;;;34.90;63.10;;;;;;1904390;74;21102;-83
2022/03/27 09:26:34;;;;;;;12.33;8.53;;;34.90;63.60;;;;;;1902275;74;21059;-85
2022/03/27 09:29:08;;;;;;;9.68;7.60;;;34.80;63.60;;;;;;1894000;74;21076;-84
2022/03/27 09:31:39;;;;;;;10.32;7.65;;;34.80;63.90;;;;;;1896894;74;21215;-84
2022/03/27 09:34:10;;;;;;;9.93;8.13;;;34.70;63.60;;;;;;1885305;75;21221;-84
2022/03/27 09:36:43;;;;;;;14.07;7.60;;;34.70;64.00;;;;;;1882230;75;21228;-85
2022/03/27 09:39:16;;;;;;;9.40;6.90;;;34.60;63.40;;;;;;1888404;75;21091;-84
2022/03/27 09:41:54;;;;;;;11.68;8.20;;;34.60;62.90;;;;;;1888404;75;21123;-84
2022/03/27 09:44:27;;;;;;;9.93;6.85;;;34.60;63.10;;;;;;1882431;75;21223;-84
2022/03/27 09:47:01;;;;;;;10.38;7.92;;;34.60;63.10;;;;;;1890884;74;21128;-83
2022/03/27 09:49:32;;;;;;;12.78;8.53;;;34.70;63.10;;;;;;1879975;74;21578;-83
2022/03/27 09:52:11;;;;;;;12.85;7.97;;;34.70;64.60;;;;;;1865047;76;21923;-83
2022/03/27 09:54:44;;;;;;;13.35;9.40;;;34.60;65.60;;;;;;1879788;75;21087;-83
2022/03/27 09:57:18;;;;;;;12.43;9.00;;;34.50;65.90;;;;;;1882589;75;21197;-82
2022/03/27 09:59:50;;;;;;;13.43;10.03;;;34.40;66.50;;;;;;1877613;74;21174;-81
2022/03/27 10:02:24;;;;;;;12.93;10.48;;;34.30;67.20;;;;;;1847142;77;21547;-83
2022/03/27 10:04:58;;;;;;;14.75;10.50;;;34.20;67.50;;;;;;1823722;78;21675;-82
2022/03/27 10:07:32;;;;;;;13.18;10.15;;;34.10;68.20;;;;;;1829279;77;21295;-81
2022/03/27 10:10:04;;;;;;;15.65;10.50;;;34.00;68.40;;;;;;1791621;79;21145;-78
2022/03/27 10:12:37;;;;;;;10.63;8.88;;;34.00;68.90;;;;;;1812441;79;21216;-81
2022/03/27 10:15:12;;;;;;;13.90;9.28;;;33.90;68.90;;;;;;1819262;77;21153;-81
2022/03/27 10:17:45;;;;;;;12.95;9.80;;;33.80;68.70;;;;;;1824645;77;21104;-82
2022/03/27 10:20:18;;;;;;;16.32;8.85;;;33.80;69.10;;;;;;1888166;74;21080;-82
2022/03/27 10:22:52;;;;;;;16.77;10.48;;;33.70;69.80;;;;;;1898628;74;21547;-83
2022/03/27 10:25:25;;;;;;;13.08;9.35;;;33.70;70.40;;;;;;1892337;74;21173;-84
2022/03/27 10:27:57;;;;;;;14.23;9.40;;;33.60;70.70;;;;;;1891308;74;21147;-81
2022/03/27 10:30:28;;;;;;;11.57;9.03;;;33.60;70.70;;;;;;1898814;74;21142;-81
2022/03/27 10:33:01;;;;;;;15.13;9.58;;;33.40;71.40;;;;;;1895237;75;21209;-81
2022/03/27 10:35:35;;;;;;;16.10;9.13;;;33.40;71.40;;;;;;1892555;74;21170;-83
2022/03/27 10:38:05;;;;;;;13.20;8.78;;;33.30;71.60;;;;;;1881934;74;21475;-84
2022/03/27 10:40:38;;;;;;;12.93;9.55;;;33.30;71.80;;;;;;1882694;75;21168;-84
2022/03/27 10:43:11;;;;;;;13.18;9.75;;;33.20;71.90;;;;;;1866352;76;21115;-82
2022/03/27 10:45:42;;;;;;;13.08;8.53;;;33.20;72.10;;;;;;1827960;78;21143;-83
2022/03/27 10:48:14;;;;;;;15.93;9.48;;;33.10;72.60;;;;;;1820802;77;21183;-82
2022/03/27 10:50:50;;;;;;;14.15;9.33;;;33.10;73.00;;;;;;1857095;76;21337;-83
2022/03/27 10:53:24;;;;;;;17.77;10.58;;;33.00;73.20;;;;;;1879229;74;21173;-83
2022/03/27 10:55:57;;;;;;;14.07;8.58;;;33.00;73.40;;;;;;1873975;74;21228;-83
2022/03/27 10:58:29;;;;;;;11.88;8.50;;;33.00;73.60;;;;;;1876304;74;21088;-84
2022/03/27 11:01:02;;;;;;;15.20;9.45;;;32.90;73.70;;;;;;1853467;76;21139;-84
2022/03/27 11:03:36;;;;;;;14.85;9.60;;;32.90;74.00;;;;;;1881999;75;21134;-84
2022/03/27 11:06:10;;;;;;;16.00;9.88;;;32.80;75.20;;;;;;1838052;77;21209;-84
2022/03/27 11:08:40;;;;;;;15.85;9.30;;;32.80;74.50;;;;;;1845012;76;21187;-82
2022/03/27 11:11:11;;;;;;;14.60;9.38;;;32.70;74.80;;;;;;1877441;76;21184;-84
2022/03/27 11:13:43;;;;;;;15.03;9.45;;;32.70;74.40;;;;;;1843372;76;21133;-85
2022/03/27 11:16:15;;;;;;;13.18;8.90;;;32.60;75.70;;;;;;1868401;76;21080;-84
2022/03/27 11:18:49;;;;;;;12.37;9.25;;;32.60;75.50;;;;;;1859879;76;21253;-82
2022/03/27 11:21:22;;;;;;;17.80;9.30;;;32.60;76.80;;;;;;1868842;76;21158;-83
2022/03/27 11:23:55;;;;;;;13.60;10.35;;;32.50;75.80;;;;;;1858007;76;21705;-83
2022/03/27 11:26:29;;;;;;;14.90;9.23;;;32.50;75.90;;;;;;1862941;76;21696;-83
2022/03/27 11:29:04;;;;;;;15.85;9.60;;;32.40;75.90;;;;;;1843230;78;21123;-84
2022/03/27 11:31:36;;;;;;;15.55;9.13;;;32.40;76.30;;;;;;1858695;76;21125;-86
2022/03/27 11:34:12;;;;;;;11.60;8.88;;;32.40;76.60;;;;;;1858561;76;21131;-84
2022/03/27 11:36:50;;;;;;;15.45;9.73;;;32.40;76.60;;;;;;1841416;78;21236;-84
2022/03/27 11:39:37;;;;;;;11.97;8.25;;;32.40;76.40;;;;;;1812964;77;21162;-84
2022/03/27 11:42:12;;;;;;;14.05;9.73;;;32.30;76.60;;;;;;1815203;78;21046;-84
2022/03/27 11:47:19;;;;;;;14.47;9.75;;;32.30;77.90;;;;;;1848112;76;21124;-83
2022/03/27 11:49:51;;;;;;;16.30;10.18;;;32.20;77.10;;;;;;1823918;77;21151;-83
2022/03/27 11:52:24;;;;;;;;;;;32.20;77.20;;;;;;1826486;77;21128;-83
2022/03/27 11:55:03;;;;;;;16.80;10.18;;;32.10;77.00;;;;;;1813631;77;20187;-84
2022/03/27 11:57:38;;;;;;;14.18;10.00;;;32.10;76.90;;;;;;1832617;77;21106;-85
2022/03/27 12:00:09;;;;;;;16.62;10.30;;;32.10;76.70;;;;;;1811937;77;21354;-83
2022/03/27 12:02:43;;;;;;;17.73;9.98;;;32.10;76.40;;;;;;1807257;77;21140;-84
2022/03/27 12:05:38;;;;;;;18.92;9.35;;;32.00;75.80;;;;;;1819311;78;21610;-85
2022/03/27 12:08:12;;;;;;;17.20;10.25;;;32.00;75.00;;;;;;1826777;78;21194;-83
2022/03/27 12:10:46;;;;;;;17.32;10.50;;;32.00;75.10;;;;;;1822972;77;21197;-83
2022/03/27 12:13:22;;;;;;;14.15;8.90;;;32.00;75.30;;;;;;1798319;79;21127;-84
2022/03/27 12:15:56;;;;;;;16.10;9.98;;;32.00;74.80;;;;;;1808365;78;21172;-83
2022/03/27 12:18:29;;;;;;;15.58;9.58;;;32.00;75.00;;;;;;1878851;76;21193;-83
2022/03/27 12:21:04;;;;;;;16.07;9.00;;;32.00;75.00;;;;;;1877766;76;21560;-84
2022/03/27 12:23:38;;;;;;;11.35;8.10;;;32.00;74.30;;;;;;1876986;75;21068;-84
2022/03/27 12:31:19;;;;;;;13.72;7.83;;;31.90;74.20;;;;;;1879282;75;21204;-84
2022/03/27 12:33:52;;;;;;;11.40;7.78;;;32.00;74.70;;;;;;1881975;75;21610;-84
2022/03/27 12:36:24;;;;;;;12.37;7.67;;;31.90;73.80;;;;;;1865370;76;21139;-83
2022/03/27 12:38:55;;;;;;;12.95;8.65;;;31.90;73.60;;;;;;1820898;78;21634;-83
2022/03/27 12:41:29;;;;;;;12.90;8.20;;;31.90;73.90;;;;;;1881743;75;21129;-84
2022/03/27 12:44:01;;;;;;;15.28;8.35;;;31.90;73.80;;;;;;1888573;75;21174;-84
2022/03/27 12:46:32;;;;;;;12.43;8.00;;;31.90;73.80;;;;;;1882585;75;21078;-84
2022/03/27 12:49:13;;;;;;;15.13;8.80;;;31.90;73.80;;;;;;1890357;75;21333;-83
2022/03/27 12:52:02;;;;;;;15.90;9.63;;;31.90;73.90;;;;;;1889218;75;21234;-83
2022/03/27 12:54:37;;;;;;;11.10;7.67;;;31.80;74.10;;;;;;1872830;75;21169;-83
2022/03/27 12:57:14;;;;;;;13.85;7.40;;;31.80;74.20;;;;;;1886559;75;21137;-83
2022/03/27 12:59:46;;;;;;;13.03;8.18;;;31.80;74.10;;;;;;1899461;75;21152;-84
2022/03/27 13:02:38;;;;;;;12.98;8.65;;;31.80;74.30;;;;;;1878216;75;21244;-83
2022/03/27 13:05:14;;;;;;;14.28;9.90;;;31.80;74.40;;;;;;1837395;78;22220;-83
2022/03/27 13:08:03;;;;;;;15.08;10.43;;;31.70;74.50;;;;;;1804040;77;21116;-83
2022/03/27 13:10:39;;;;;;;14.03;10.55;;;31.80;74.80;;;;;;1834040;77;21151;-82
2022/03/27 13:13:13;;;;;;;15.85;10.85;;;31.80;75.30;;;;;;1836938;76;21861;-83
2022/03/27 13:15:56;;;;;;;15.20;10.70;;;31.70;75.40;;;;;;1876334;75;21139;-84
2022/03/27 13:18:41;;;;;;;12.80;9.48;;;31.70;75.50;;;;;;1892299;73;21109;-82
2022/03/27 13:21:16;;;;;;;14.47;9.53;;;31.60;75.80;;;;;;1888137;75;21167;-84